Time,TemperatureF,DewpointF,PressureIn,WindDirection,WindDirectionDegrees,WindSpeedMPH,WindSpeedGustMPH,Humidity,HourlyPrecipIn,Conditions,Clouds,dailyrainin,SoftwareType,DateUTC
2013-04-02 00:02:00,44.0,26.0,-100.00,East,79,10.0,16.0,48,0.00,,,-99.99,,2013-04-02 00:02:00,
2013-04-02 00:12:00,44.0,26.0,-100.00,East,79,11.0,15.0,49,0.00,,,-99.99,,2013-04-02 00:12:00,
2013-04-02 00:22:00,43.0,26.0,-100.00,East,85,12.0,18.0,51,0.00,,,-99.99,,2013-04-02 00:22:00,
2013-04-02 00:33:00,41.0,27.0,-100.00,ESE,102,13.0,20.0,57,0.00,,,-99.99,,2013-04-02 00:33:00,
2013-04-02 00:42:00,41.0,27.0,-100.00,ESE,109,11.0,20.0,56,0.00,,,-99.99,,2013-04-02 00:42:00,
2013-04-02 00:52:00,40.0,27.0,-100.00,ESE,103,14.0,19.0,59,0.00,,,-99.99,,2013-04-02 00:52:00,
2013-04-02 01:02:00,39.0,27.0,-100.00,ESE,104,17.0,22.0,64,0.00,,,-99.99,,2013-04-02 01:02:00,
2013-04-02 01:12:00,38.0,27.0,-100.00,ESE,103,16.0,22.0,65,0.00,,,-99.99,,2013-04-02 01:12:00,
2013-04-02 01:22:00,36.0,27.0,-100.00,ESE,107,16.0,20.0,70,0.00,,,-99.99,,2013-04-02 01:22:00,
2013-04-02 01:32:00,35.0,27.0,-100.00,ESE,104,15.0,19.0,73,0.00,,,-99.99,,2013-04-02 01:32:00,
2013-04-02 01:42:00,35.0,28.0,-100.00,ESE,106,15.0,19.0,74,0.00,,,-99.99,,2013-04-02 01:42:00,
2013-04-02 01:52:00,35.0,28.0,-100.00,ESE,103,13.0,17.0,76,0.00,,,-99.99,,2013-04-02 01:52:00,
2013-04-02 02:02:00,35.0,28.0,-100.00,ESE,106,12.0,15.0,77,0.00,,,-99.99,,2013-04-02 02:02:00,
2013-04-02 02:12:00,35.0,28.0,-100.00,ESE,102,12.0,16.0,78,0.00,,,-99.99,,2013-04-02 02:12:00,
2013-04-02 02:22:00,34.0,29.0,-100.00,ESE,102,11.0,15.0,80,0.00,,,-99.99,,2013-04-02 02:22:00,
2013-04-02 02:32:00,34.0,29.0,-100.00,East,97,12.0,17.0,83,0.00,,,-99.99,,2013-04-02 02:32:00,
2013-04-02 02:42:00,33.0,29.0,-100.00,East,95,12.0,17.0,84,0.00,,,-99.99,,2013-04-02 02:42:00,
2013-04-02 02:52:00,33.0,29.0,-100.00,East,96,12.0,17.0,85,0.00,,,-99.99,,2013-04-02 02:52:00,
2013-04-02 03:02:00,33.0,29.0,-100.00,East,96,12.0,17.0,85,0.00,,,-99.99,,2013-04-02 03:02:00,
2013-04-02 03:12:00,33.0,29.0,-100.00,East,96,12.0,16.0,86,0.00,,,-99.99,,2013-04-02 03:12:00,
2013-04-02 03:22:00,33.0,30.0,-100.00,East,95,11.0,16.0,87,0.00,,,-99.99,,2013-04-02 03:22:00,
2013-04-02 03:33:00,33.0,30.0,-100.00,East,93,11.0,16.0,88,0.00,,,-99.99,,2013-04-02 03:33:00,
2013-04-02 03:43:00,33.0,30.0,-100.00,East,96,12.0,17.0,89,0.00,,,-99.99,,2013-04-02 03:43:00,
2013-04-02 03:52:00,33.0,30.0,-100.00,East,97,12.0,17.0,89,0.00,,,-99.99,,2013-04-02 03:52:00,
2013-04-02 04:03:00,33.0,30.0,-100.00,ESE,102,13.0,18.0,89,0.00,,,-99.99,,2013-04-02 04:03:00,
2013-04-02 04:13:00,33.0,30.0,-100.00,ESE,104,14.0,19.0,88,0.00,,,-99.99,,2013-04-02 04:13:00,
2013-04-02 04:22:00,33.0,30.0,-100.00,ESE,110,15.0,21.0,89,0.00,,,-99.99,,2013-04-02 04:22:00,
2013-04-02 04:32:00,33.0,30.0,-100.00,ESE,113,13.0,19.0,90,0.00,,,-99.99,,2013-04-02 04:32:00,
2013-04-02 04:42:00,32.0,30.0,-100.00,ESE,109,14.0,21.0,90,0.00,,,-99.99,,2013-04-02 04:42:00,
2013-04-02 04:52:00,32.0,29.0,-100.00,ESE,112,15.0,19.0,90,0.00,,,-99.99,,2013-04-02 04:52:00,
2013-04-02 05:02:00,31.0,29.0,-100.00,ESE,119,15.0,18.0,91,0.00,,,-99.99,,2013-04-02 05:02:00,
2013-04-02 05:12:00,31.0,29.0,-100.00,ESE,116,14.0,18.0,92,0.00,,,-99.99,,2013-04-02 05:12:00,
2013-04-02 05:22:00,31.0,29.0,-100.00,ESE,121,13.0,17.0,91,0.00,,,-99.99,,2013-04-02 05:22:00,
2013-04-02 05:32:00,31.0,29.0,-100.00,ESE,116,12.0,16.0,91,0.00,,,-99.99,,2013-04-02 05:32:00,
2013-04-02 05:42:00,31.0,28.0,-100.00,ESE,113,11.0,14.0,91,0.00,,,-99.99,,2013-04-02 05:42:00,
2013-04-02 05:52:00,31.0,29.0,-100.00,ESE,107,10.0,14.0,92,0.00,,,-99.99,,2013-04-02 05:52:00,
2013-04-02 06:02:00,31.0,29.0,-100.00,ESE,114,9.0,13.0,93,0.00,,,-99.99,,2013-04-02 06:02:00,
2013-04-02 06:12:00,31.0,29.0,-100.00,ESE,113,9.0,12.0,93,0.00,,,-99.99,,2013-04-02 06:12:00,
2013-04-02 06:22:00,30.0,29.0,-100.00,ESE,104,7.0,10.0,93,0.00,,,-99.99,,2013-04-02 06:22:00,
2013-04-02 06:32:00,31.0,29.0,-100.00,East,97,8.0,12.0,92,0.00,,,-99.99,,2013-04-02 06:32:00,
2013-04-02 06:42:00,30.0,28.0,-100.00,East,96,9.0,13.0,93,0.00,,,-99.99,,2013-04-02 06:42:00,
2013-04-02 06:52:00,30.0,29.0,-100.00,East,89,7.0,11.0,94,0.00,,,-99.99,,2013-04-02 06:52:00,
2013-04-02 07:02:00,30.0,29.0,-100.00,East,96,7.0,11.0,95,0.00,,,-99.99,,2013-04-02 07:02:00,
2013-04-02 07:12:00,30.0,29.0,-100.00,East,93,7.0,12.0,96,0.00,,,-99.99,,2013-04-02 07:12:00,
2013-04-02 07:22:00,30.0,29.0,-100.00,East,99,9.0,12.0,97,0.01,,,-99.99,,2013-04-02 07:22:00,
2013-04-02 07:32:00,29.0,29.0,-100.00,ESE,103,9.0,12.0,98,0.00,,,-99.99,,2013-04-02 07:32:00,
2013-04-02 07:42:00,29.0,29.0,-100.00,ESE,103,9.0,11.0,99,0.00,,,-99.99,,2013-04-02 07:42:00,
2013-04-02 07:52:00,29.0,29.0,-100.00,ESE,110,7.0,11.0,99,0.00,,,-99.99,,2013-04-02 07:52:00,
2013-04-02 08:02:00,29.0,29.0,-100.00,ESE,119,8.0,11.0,99,0.00,,,-99.99,,2013-04-02 08:02:00,
2013-04-02 08:13:00,29.0,29.0,-100.00,SE,126,8.0,11.0,99,0.00,,,-99.99,,2013-04-02 08:13:00,
2013-04-02 08:22:00,29.0,29.0,-100.00,ESE,117,6.0,9.0,99,0.04,,,-99.99,,2013-04-02 08:22:00,
2013-04-02 08:32:00,29.0,29.0,-100.00,ESE,107,6.0,7.0,99,0.01,,,-99.99,,2013-04-02 08:32:00,
2013-04-02 08:42:00,29.0,29.0,-100.00,ESE,104,6.0,8.0,99,0.04,,,-99.99,,2013-04-02 08:42:00,
2013-04-02 08:52:00,29.0,29.0,-100.00,ESE,117,6.0,7.0,100,0.00,,,-99.99,,2013-04-02 08:52:00,
2013-04-02 09:02:00,29.0,29.0,-100.00,East,99,5.0,7.0,100,0.00,,,-99.99,,2013-04-02 09:02:00,
2013-04-02 09:12:00,29.0,29.0,-100.00,East,100,5.0,7.0,100,0.01,,,-99.99,,2013-04-02 09:12:00,
2013-04-02 09:22:00,29.0,29.0,-100.00,ESE,113,4.0,6.0,100,0.00,,,-99.99,,2013-04-02 09:22:00,
2013-04-02 09:32:00,29.0,29.0,-100.00,ESE,117,5.0,7.0,100,0.00,,,-99.99,,2013-04-02 09:32:00,
2013-04-02 09:43:00,28.0,28.0,-100.00,ESE,112,7.0,10.0,100,0.00,,,-99.99,,2013-04-02 09:43:00,
2013-04-02 09:52:00,28.0,28.0,-100.00,ESE,116,7.0,9.0,100,0.00,,,-99.99,,2013-04-02 09:52:00,
2013-04-02 10:03:00,28.0,28.0,-100.00,ESE,116,6.0,9.0,100,0.00,,,-99.99,,2013-04-02 10:03:00,
2013-04-02 10:13:00,28.0,28.0,-100.00,ESE,106,8.0,11.0,100,0.00,,,-99.99,,2013-04-02 10:13:00,
2013-04-02 10:23:00,28.0,28.0,-100.00,East,96,7.0,12.0,100,0.00,,,-99.99,,2013-04-02 10:23:00,
2013-04-02 10:33:00,28.0,28.0,-100.00,East,93,6.0,9.0,100,0.00,,,-99.99,,2013-04-02 10:33:00,
2013-04-02 10:42:00,28.0,28.0,-100.00,ESE,114,4.0,6.0,100,0.00,,,-99.99,,2013-04-02 10:42:00,
2013-04-02 10:52:00,29.0,29.0,-100.00,SE,130,6.0,9.0,100,0.00,,,-99.99,,2013-04-02 10:52:00,
2013-04-02 11:02:00,29.0,29.0,-100.00,SE,128,8.0,12.0,100,0.00,,,-99.99,,2013-04-02 11:02:00,
2013-04-02 11:12:00,29.0,29.0,-100.00,ESE,123,9.0,12.0,100,0.00,,,-99.99,,2013-04-02 11:12:00,
2013-04-02 11:22:00,29.0,29.0,-100.00,ESE,120,7.0,11.0,100,0.00,,,-99.99,,2013-04-02 11:22:00,
2013-04-02 11:32:00,29.0,29.0,-100.00,SE,130,7.0,10.0,100,0.00,,,-99.99,,2013-04-02 11:32:00,
2013-04-02 11:42:00,29.0,29.0,-100.00,ESE,116,4.0,6.0,100,0.00,,,-99.99,,2013-04-02 11:42:00,
2013-04-02 11:52:00,29.0,29.0,-100.00,ESE,106,2.0,4.0,100,0.00,,,-99.99,,2013-04-02 11:52:00,
2013-04-02 12:02:00,29.0,29.0,-100.00,ENE,78,2.0,3.0,100,0.00,,,-99.99,,2013-04-02 12:02:00,
2013-04-02 12:12:00,29.0,29.0,-100.00,ENE,78,2.0,3.0,100,0.00,,,-99.99,,2013-04-02 12:12:00,
2013-04-02 12:22:00,30.0,30.0,-100.00,East,79,4.0,8.0,100,0.00,,,-99.99,,2013-04-02 12:22:00,
2013-04-02 12:32:00,29.0,29.0,-100.00,East,89,5.0,8.0,100,0.00,,,-99.99,,2013-04-02 12:32:00,
2013-04-02 12:42:00,29.0,29.0,-100.00,ESE,110,4.0,6.0,100,0.00,,,-99.99,,2013-04-02 12:42:00,
2013-04-02 12:52:00,29.0,29.0,-100.00,ESE,104,4.0,6.0,100,0.00,,,-99.99,,2013-04-02 12:52:00,
2013-04-02 13:02:00,29.0,29.0,-100.00,East,96,4.0,6.0,100,0.00,,,-99.99,,2013-04-02 13:02:00,
2013-04-02 13:12:00,29.0,29.0,-100.00,East,93,5.0,7.0,100,0.00,,,-99.99,,2013-04-02 13:12:00,
2013-04-02 13:22:00,29.0,29.0,-100.00,East,93,5.0,7.0,100,0.00,,,-99.99,,2013-04-02 13:22:00,
2013-04-02 13:33:00,29.0,29.0,-100.00,ENE,61,6.0,8.0,100,0.00,,,-99.99,,2013-04-02 13:33:00,
2013-04-02 13:42:00,28.0,28.0,-100.00,ENE,72,5.0,7.0,100,0.00,,,-99.99,,2013-04-02 13:42:00,
2013-04-02 13:52:00,28.0,28.0,-100.00,ENE,76,4.0,7.0,100,0.00,,,-99.99,,2013-04-02 13:52:00,
2013-04-02 14:02:00,29.0,29.0,-100.00,ENE,76,4.0,7.0,100,0.00,,,-99.99,,2013-04-02 14:02:00,
2013-04-02 14:12:00,28.0,28.0,-100.00,ENE,78,4.0,6.0,100,0.00,,,-99.99,,2013-04-02 14:12:00,
2013-04-02 14:23:00,29.0,29.0,-100.00,ESE,110,4.0,6.0,100,0.00,,,-99.99,,2013-04-02 14:23:00,
2013-04-02 14:32:00,29.0,29.0,-100.00,ESE,117,2.0,4.0,100,0.00,,,-99.99,,2013-04-02 14:32:00,
2013-04-02 14:42:00,29.0,29.0,-100.00,ESE,113,2.0,4.0,100,0.00,,,-99.99,,2013-04-02 14:42:00,
2013-04-02 14:52:00,29.0,29.0,-100.00,ESE,114,2.0,4.0,100,0.00,,,-99.99,,2013-04-02 14:52:00,
2013-04-02 15:02:00,29.0,29.0,-100.00,East,96,3.0,4.0,100,0.00,,,-99.99,,2013-04-02 15:02:00,
2013-04-02 15:11:00,29.0,29.0,-100.00,East,97,4.0,6.0,100,0.00,,,-99.99,,2013-04-02 15:11:00,
2013-04-02 15:22:00,29.0,29.0,-100.00,ESE,112,3.0,6.0,100,0.00,,,-99.99,,2013-04-02 15:22:00,
2013-04-02 15:33:00,30.0,30.0,-100.00,ESE,113,3.0,4.0,100,0.00,,,-99.99,,2013-04-02 15:33:00,
2013-04-02 15:42:00,30.0,30.0,-100.00,ESE,120,4.0,6.0,99,0.00,,,-99.99,,2013-04-02 15:42:00,
2013-04-02 15:54:00,30.0,30.0,-100.00,ESE,117,4.0,7.0,99,0.00,,,-99.99,,2013-04-02 15:54:00,
2013-04-02 16:03:00,30.0,30.0,-100.00,ESE,120,4.0,6.0,98,0.00,,,-99.99,,2013-04-02 16:03:00,
2013-04-02 16:13:00,31.0,30.0,-100.00,SE,126,4.0,6.0,98,0.00,,,-99.99,,2013-04-02 16:13:00,
2013-04-02 16:24:00,31.0,30.0,-100.00,East,97,4.0,7.0,94,0.00,,,-99.99,,2013-04-02 16:24:00,
2013-04-02 16:35:00,32.0,28.0,-100.00,East,82,5.0,11.0,85,0.00,,,-99.99,,2013-04-02 16:35:00,
2013-04-02 16:43:00,33.0,28.0,-100.00,ENE,71,7.0,11.0,83,0.00,,,-99.99,,2013-04-02 16:43:00,
2013-04-02 16:52:00,33.0,27.0,-100.00,ENE,72,11.0,15.0,77,0.00,,,-99.99,,2013-04-02 16:52:00,
2013-04-02 17:05:00,33.0,26.0,-100.00,ENE,69,10.0,14.0,76,0.00,,,-99.99,,2013-04-02 17:05:00,
2013-04-02 17:13:00,33.0,26.0,-100.00,ENE,78,9.0,14.0,74,0.00,,,-99.99,,2013-04-02 17:13:00,
2013-04-02 17:24:00,33.0,27.0,-100.00,ENE,73,7.0,12.0,76,0.00,,,-99.99,,2013-04-02 17:24:00,
2013-04-02 17:43:00,33.0,27.0,-100.00,East,88,7.0,11.0,77,0.00,,,-99.99,,2013-04-02 17:43:00,
2013-04-02 17:53:00,34.0,27.0,-100.00,East,89,7.0,12.0,76,0.00,,,-99.99,,2013-04-02 17:53:00,
2013-04-02 18:03:00,34.0,27.0,-100.00,East,80,7.0,12.0,74,0.00,,,-99.99,,2013-04-02 18:03:00,
2013-04-02 18:12:00,34.0,27.0,-100.00,East,80,7.0,12.0,74,0.00,,,-99.99,,2013-04-02 18:12:00,
2013-04-02 18:23:00,35.0,26.0,-100.00,East,92,7.0,11.0,71,0.00,,,-99.99,,2013-04-02 18:23:00,
2013-04-02 18:34:00,35.0,26.0,-100.00,East,95,9.0,14.0,70,0.00,,,-99.99,,2013-04-02 18:34:00,
2013-04-02 18:43:00,35.0,25.0,-100.00,East,83,9.0,13.0,66,0.00,,,-99.99,,2013-04-02 18:43:00,
2013-04-02 18:54:00,35.0,26.0,-100.00,East,86,9.0,15.0,68,0.00,,,-99.99,,2013-04-02 18:54:00,
2013-04-02 19:03:00,35.0,25.0,-100.00,East,93,9.0,15.0,67,0.00,,,-99.99,,2013-04-02 19:03:00,
2013-04-02 19:13:00,36.0,26.0,-100.00,ESE,109,7.0,12.0,68,0.00,,,-99.99,,2013-04-02 19:13:00,
2013-04-02 19:22:00,36.0,28.0,-100.00,East,95,8.0,13.0,72,0.00,,,-99.99,,2013-04-02 19:22:00,
2013-04-02 19:33:00,35.0,30.0,-100.00,ESE,106,11.0,15.0,82,0.00,,,-99.99,,2013-04-02 19:33:00,
2013-04-02 19:45:00,34.0,30.0,-100.00,ESE,112,9.0,12.0,84,0.00,,,-99.99,,2013-04-02 19:45:00,
2013-04-02 19:53:00,34.0,29.0,-100.00,East,99,9.0,16.0,80,0.00,,,-99.99,,2013-04-02 19:53:00,
2013-04-02 20:03:00,33.0,31.0,-100.00,ESE,112,14.0,19.0,93,0.01,,,-99.99,,2013-04-02 20:03:00,
2013-04-02 20:13:00,32.0,31.0,-100.00,ESE,114,15.0,19.0,94,0.03,,,-99.99,,2013-04-02 20:13:00,
2013-04-02 20:22:00,32.0,31.0,-100.00,ESE,106,13.0,19.0,97,0.01,,,-99.99,,2013-04-02 20:22:00,
2013-04-02 20:33:00,31.0,31.0,-100.00,East,95,11.0,16.0,98,0.06,,,-99.99,,2013-04-02 20:33:00,
2013-04-02 20:43:00,31.0,31.0,-100.00,ESE,102,9.0,12.0,99,0.03,,,-99.99,,2013-04-02 20:43:00,
2013-04-02 20:53:00,31.0,31.0,-100.00,ESE,107,9.0,11.0,99,0.00,,,-99.99,,2013-04-02 20:53:00,
2013-04-02 21:04:00,32.0,32.0,-100.00,ESE,110,7.0,11.0,100,0.00,,,-99.99,,2013-04-02 21:04:00,
2013-04-02 21:13:00,33.0,32.0,-100.00,ESE,103,7.0,10.0,99,0.00,,,-99.99,,2013-04-02 21:13:00,
2013-04-02 21:23:00,33.0,33.0,-100.00,East,90,6.0,10.0,99,0.00,,,-99.99,,2013-04-02 21:23:00,
2013-04-02 21:34:00,33.0,32.0,-100.00,East,80,7.0,12.0,95,0.00,,,-99.99,,2013-04-02 21:34:00,
2013-04-02 21:43:00,34.0,32.0,-100.00,East,83,7.0,11.0,94,0.00,,,-99.99,,2013-04-02 21:43:00,
2013-04-02 21:54:00,35.0,32.0,-100.00,ENE,72,7.0,11.0,89,0.00,,,-99.99,,2013-04-02 21:54:00,
2013-04-02 22:04:00,35.0,32.0,-100.00,ENE,68,8.0,12.0,87,0.00,,,-99.99,,2013-04-02 22:04:00,
2013-04-02 22:13:00,35.0,30.0,-100.00,ENE,65,10.0,14.0,82,0.00,,,-99.99,,2013-04-02 22:13:00,
2013-04-02 22:24:00,35.0,30.0,-100.00,NE,49,12.0,17.0,82,0.00,,,-99.99,,2013-04-02 22:24:00,
2013-04-02 22:33:00,36.0,30.0,-100.00,ENE,59,11.0,16.0,81,0.00,,,-99.99,,2013-04-02 22:33:00,
2013-04-02 22:43:00,36.0,31.0,-100.00,NE,55,10.0,12.0,81,0.00,,,-99.99,,2013-04-02 22:43:00,
2013-04-02 22:53:00,36.0,30.0,-100.00,NE,56,9.0,13.0,79,0.00,,,-99.99,,2013-04-02 22:53:00,
2013-04-02 23:02:00,36.0,30.0,-100.00,ENE,58,9.0,13.0,79,0.00,,,-99.99,,2013-04-02 23:02:00,
2013-04-02 23:12:00,36.0,30.0,-100.00,NE,54,9.0,13.0,79,0.00,,,-99.99,,2013-04-02 23:12:00,
2013-04-02 23:23:00,36.0,30.0,-100.00,NE,56,10.0,16.0,80,0.00,,,-99.99,,2013-04-02 23:23:00,
2013-04-02 23:34:00,36.0,31.0,-100.00,NE,42,11.0,16.0,79,0.00,,,-99.99,,2013-04-02 23:34:00,
2013-04-02 23:42:00,37.0,30.0,-100.00,NE,56,10.0,12.0,76,0.00,,,-99.99,,2013-04-02 23:42:00,
2013-04-02 23:52:00,37.0,30.0,-100.00,NE,51,8.0,12.0,76,0.00,,,-99.99,,2013-04-02 23:52:00,